createdAt,value
2019-03-05T09:02:57.872Z,1776
2019-03-05T09:03:29.837Z,1684
2019-03-05T09:04:01.816Z,1608
2019-03-05T09:04:33.817Z,1444
2019-03-05T09:05:05.798Z,1292
2019-03-05T09:06:57.184Z,1172
2019-03-05T09:07:29.155Z,1060
2019-03-05T09:08:01.122Z,940
2019-03-05T09:08:33.084Z,864
2019-03-05T09:09:05.102Z,984
2019-03-05T09:09:37.145Z,1180
2019-03-05T09:10:09.120Z,1228
2019-03-05T09:10:41.104Z,1216
2019-03-05T09:11:13.067Z,1352
2019-03-05T09:11:45.044Z,1604
2019-03-05T09:12:17.067Z,1780
2019-03-05T09:12:49.032Z,1788
2019-03-05T09:13:33.262Z,1756
2019-03-05T09:14:05.280Z,1676
2019-03-05T09:15:56.739Z,1548
2019-03-05T09:16:28.844Z,1676
2019-03-05T09:17:00.827Z,1772
2019-03-05T09:17:32.821Z,1872
2019-03-05T09:18:04.808Z,1932
2019-03-05T09:18:36.870Z,1936
2019-03-05T09:19:08.859Z,1956
2019-03-05T09:21:00.103Z,2280
2019-03-05T09:21:32.117Z,2216
2019-03-05T09:22:04.092Z,2052
2019-03-05T09:23:55.591Z,2260
2019-03-05T09:24:28.498Z,2296
2019-03-05T09:25:00.544Z,2488
2019-03-05T09:25:32.519Z,2460
2019-03-05T09:27:23.697Z,1648
2019-03-05T09:27:57.484Z,1424
2019-03-05T09:28:29.508Z,1324
2019-03-05T09:30:21.226Z,1400
2019-03-05T09:30:53.200Z,1240
2019-03-05T09:31:25.429Z,1220
2019-03-05T09:31:57.501Z,1304
2019-03-05T09:32:29.478Z,1424
2019-03-05T09:33:01.504Z,1540
2019-03-05T09:34:53.021Z,2700
2019-03-05T09:35:25.000Z,2900
2019-03-05T09:37:16.508Z,3088
2019-03-05T09:37:48.509Z,2948
2019-03-05T09:38:20.490Z,2828
2019-03-05T09:38:52.564Z,2740
2019-03-05T09:39:24.770Z,2724
2019-03-05T09:39:56.754Z,2884
2019-03-05T09:40:28.737Z,2228
2019-03-05T09:41:00.695Z,2176
2019-03-05T09:41:33.003Z,2144
2019-03-05T09:43:25.170Z,2712
2019-03-05T09:46:35.713Z,4508
2019-03-05T09:47:07.990Z,4920
2019-03-05T09:47:39.962Z,4940
2019-03-05T09:48:12.037Z,4088
2019-03-05T09:48:44.714Z,4212
2019-03-05T09:49:17.422Z,3752
2019-03-05T09:49:49.490Z,2600
2019-03-05T09:50:21.703Z,2636
2019-03-05T09:52:13.225Z,3932
2019-03-05T09:52:56.268Z,3048
2019-03-05T09:53:28.211Z,3108
2019-03-05T09:54:00.168Z,2800
2019-03-05T09:55:51.617Z,2560
2019-03-05T09:56:23.606Z,2036
2019-03-05T09:56:55.580Z,1920
2019-03-05T09:57:28.732Z,2012
2019-03-05T09:58:09.694Z,1900
2019-03-05T09:58:41.684Z,2276
2019-03-05T09:59:13.692Z,2768
2019-03-05T09:59:45.668Z,2960
2019-03-05T10:00:17.671Z,2384
2019-03-05T10:00:49.665Z,2204
2019-03-05T10:01:21.652Z,2232
2019-03-05T10:01:53.637Z,2944
2019-03-05T10:03:45.346Z,2300
2019-03-05T10:04:17.849Z,2008
2019-03-05T10:04:49.813Z,2228
2019-03-05T10:05:21.914Z,3304
2019-03-05T10:07:18.775Z,2880
2019-03-05T10:09:10.587Z,2884
2019-03-05T10:09:42.566Z,3080
2019-03-05T10:11:34.241Z,3064
2019-03-05T10:12:06.241Z,2856
2019-03-05T10:12:38.223Z,2732
2019-03-05T10:13:10.175Z,2848
2019-03-05T10:15:04.129Z,3160
2019-03-05T10:15:36.110Z,3168
2019-03-05T10:16:08.120Z,3372
2019-03-05T10:17:59.338Z,2948
2019-03-05T10:18:31.299Z,2984
2019-03-05T10:19:05.024Z,3488
2019-03-05T10:19:39.706Z,3232
2019-03-05T10:20:11.705Z,3052
2019-03-05T10:20:43.676Z,2960
2019-03-05T10:22:35.235Z,2428
2019-03-05T10:23:07.227Z,2320
2019-03-05T10:25:07.375Z,2320
2019-03-05T10:25:39.327Z,2260
2019-03-05T10:26:11.932Z,2216
2019-03-05T10:26:43.953Z,2192
2019-03-05T10:27:15.951Z,2160
2019-03-05T10:27:47.956Z,2256
2019-03-05T10:28:19.904Z,2332
2019-03-05T10:28:51.882Z,2160
2019-03-05T10:29:23.882Z,2100
2019-03-05T10:29:55.818Z,1996
2019-03-05T10:33:06.665Z,2224
2019-03-05T10:33:38.663Z,2304
2019-03-05T10:34:10.667Z,2340
2019-03-05T10:34:42.646Z,2496
2019-03-05T10:35:14.633Z,2644
2019-03-05T10:35:46.604Z,2572
2019-03-05T10:36:18.581Z,2376
2019-03-05T10:36:50.659Z,2404
2019-03-05T10:37:22.686Z,2388
2019-03-05T10:37:54.647Z,2356
2019-03-05T10:38:26.634Z,2488
2019-03-05T10:40:18.764Z,4532
2019-03-05T10:40:50.724Z,3608
2019-03-05T10:41:22.684Z,2768
2019-03-05T10:41:54.704Z,4756
2019-03-05T10:43:46.071Z,2956
2019-03-05T10:44:18.054Z,4848
2019-03-05T10:44:50.014Z,2436
2019-03-05T10:45:21.997Z,2440
2019-03-05T10:47:13.691Z,2704
2019-03-05T10:47:45.647Z,3072
2019-03-05T10:48:17.648Z,3528
2019-03-05T10:48:49.626Z,3820
2019-03-05T10:50:40.855Z,3404
2019-03-05T10:51:12.834Z,3320
2019-03-05T10:51:44.816Z,3532
2019-03-05T10:52:16.781Z,3872
2019-03-05T10:54:08.185Z,4632
2019-03-05T10:54:40.189Z,4480
2019-03-05T10:55:12.177Z,4108
2019-03-05T10:55:44.133Z,4036
2019-03-05T10:56:16.109Z,4088
2019-03-05T10:56:48.096Z,3804
2019-03-05T10:58:39.524Z,3948
2019-03-05T11:00:30.931Z,3124
2019-03-05T11:01:02.923Z,2932
2019-03-05T11:01:34.932Z,2600
2019-03-05T11:02:06.917Z,2420
2019-03-05T11:02:38.892Z,2600
2019-03-05T11:03:10.770Z,2592
2019-03-05T11:03:42.729Z,2400
2019-03-05T11:04:14.695Z,2080
2019-03-05T11:04:47.316Z,1880
2019-03-05T11:05:19.273Z,1740
2019-03-05T11:07:10.882Z,1556
2019-03-05T11:07:42.860Z,1560
2019-03-05T11:08:14.824Z,1528
2019-03-05T11:08:46.804Z,1512
2019-03-05T11:09:18.771Z,1480
2019-03-05T11:09:50.767Z,1440
2019-03-05T11:10:22.739Z,1344
2019-03-05T11:10:54.722Z,1332
2019-03-05T11:11:26.883Z,1308
2019-03-05T11:11:58.926Z,1300
2019-03-05T11:12:31.028Z,1392
2019-03-05T11:13:03.089Z,1524
2019-03-05T11:13:36.022Z,1656
2019-03-05T11:14:08.006Z,1856
2019-03-05T11:15:59.478Z,1860
2019-03-05T11:16:32.469Z,1792
2019-03-05T11:17:04.456Z,1896
2019-03-05T11:17:36.445Z,1928
2019-03-05T11:18:08.420Z,1876
2019-03-05T11:18:40.400Z,1844
2019-03-05T11:19:12.460Z,1812
2019-03-05T11:19:44.454Z,1848
2019-03-05T11:20:16.407Z,1920
2019-03-05T11:20:48.357Z,1932
2019-03-05T11:21:20.344Z,1860
2019-03-05T11:21:52.312Z,1804
2019-03-05T11:22:24.316Z,1732
2019-03-05T11:22:56.275Z,1652
2019-03-05T11:23:28.779Z,1576
2019-03-05T11:24:00.954Z,1564
2019-03-05T11:24:32.920Z,1536
2019-03-05T11:26:24.343Z,1660
2019-03-05T11:26:56.576Z,1708
2019-03-05T11:27:28.733Z,1676
2019-03-05T11:28:00.864Z,1604
2019-03-05T11:28:32.994Z,1560
2019-03-05T11:33:03.391Z,1724
2019-03-05T11:33:35.373Z,1660
2019-03-05T11:34:07.369Z,1576
2019-03-05T11:34:39.364Z,1628
2019-03-05T11:35:11.332Z,1824
2019-03-05T11:35:43.313Z,1984
2019-03-05T11:36:15.285Z,2072
2019-03-05T11:36:47.264Z,2096
2019-03-05T11:37:19.233Z,2120
2019-03-05T11:39:10.476Z,2220
2019-03-05T11:39:42.997Z,2324
2019-03-05T11:40:22.404Z,2392
2019-03-05T11:40:54.405Z,2440
2019-03-05T11:41:26.394Z,2476
2019-03-05T11:41:58.368Z,2488
2019-03-05T11:42:30.349Z,2564
2019-03-05T11:43:02.320Z,2696
2019-03-05T11:43:34.289Z,2860
2019-03-05T11:44:06.958Z,3076
2019-03-05T11:44:38.946Z,3296
2019-03-05T11:45:12.958Z,3520
2019-03-05T11:45:45.048Z,3616
2019-03-05T11:46:17.143Z,3572
2019-03-05T11:46:49.115Z,3544
2019-03-05T11:47:21.095Z,3528
2019-03-05T11:47:53.051Z,3532
2019-03-05T11:48:25.057Z,3508
2019-03-05T11:48:57.051Z,3520
2019-03-05T11:49:29.013Z,3588
2019-03-05T11:50:01.104Z,3692
2019-03-05T11:50:33.037Z,3684
2019-03-05T11:51:05.011Z,3636
2019-03-05T11:51:36.985Z,3480
2019-03-05T11:52:08.943Z,3324
2019-03-05T11:52:40.912Z,3112
2019-03-05T11:53:12.892Z,2888
2019-03-05T11:53:44.897Z,2752
2019-03-05T11:54:16.879Z,2720
2019-03-05T11:54:48.926Z,2844
2019-03-05T11:56:40.379Z,2924
2019-03-05T11:57:12.348Z,2900
2019-03-05T11:57:44.338Z,2968
2019-03-05T11:58:16.313Z,3180
2019-03-05T11:58:48.309Z,3408
2019-03-05T12:00:39.956Z,4600
2019-03-05T12:01:11.937Z,4580
2019-03-05T12:04:23.074Z,5792
2019-03-05T12:04:55.068Z,6328
2019-03-05T12:05:27.068Z,7356
2019-03-05T12:05:59.124Z,8740
2019-03-05T12:06:31.148Z,9180
2019-03-05T12:07:03.147Z,6904
2019-03-05T12:07:35.513Z,9376
2019-03-05T12:08:07.537Z,8320
2019-03-05T12:08:39.506Z,8340
2019-03-05T12:09:11.464Z,10404
2019-03-05T12:09:43.441Z,6980
2019-03-05T12:10:15.382Z,7688
2019-03-05T12:10:47.358Z,11236
2019-03-05T12:11:19.343Z,11616
2019-03-05T12:11:51.506Z,9992
2019-03-05T12:12:23.472Z,9580
2019-03-05T12:12:55.461Z,8540
2019-03-05T12:13:27.446Z,8080
2019-03-05T12:13:59.394Z,7416
2019-03-05T12:14:31.377Z,8972
2019-03-05T12:15:03.618Z,6780
2019-03-05T12:15:35.709Z,7628
2019-03-05T12:16:07.660Z,6896
2019-03-05T12:16:42.381Z,6684
2019-03-05T12:17:14.350Z,7140
2019-03-05T12:19:06.020Z,4460
2019-03-05T12:19:38.296Z,4152
2019-03-05T12:21:29.711Z,3388
2019-03-05T12:22:01.742Z,3356
2019-03-05T12:22:33.826Z,3232
2019-03-05T12:23:12.385Z,3428
2019-03-05T12:23:49.229Z,8964
2019-03-05T12:24:26.541Z,6524
2019-03-05T12:25:04.357Z,2796
2019-03-05T12:25:41.665Z,6856
2019-03-05T12:26:13.666Z,2308
2019-03-05T12:26:45.652Z,2140
2019-03-05T12:27:17.636Z,2228
2019-03-05T12:27:49.608Z,2392
2019-03-05T12:28:21.995Z,2320
2019-03-05T12:29:19.312Z,1996
2019-03-05T12:29:51.541Z,2004
2019-03-05T12:30:23.491Z,2368
2019-03-05T12:30:56.161Z,2840
2019-03-05T12:31:28.133Z,3160
2019-03-05T12:32:00.129Z,3536
2019-03-05T12:32:33.223Z,3704
2019-03-05T12:33:07.781Z,3700
2019-03-05T12:33:39.745Z,3668
2019-03-05T12:34:12.148Z,3420
2019-03-05T12:34:44.116Z,3132
2019-03-05T12:35:16.069Z,3052
2019-03-05T12:35:48.040Z,3472
2019-03-05T12:36:20.130Z,3596
2019-03-05T12:36:52.082Z,3668
2019-03-05T12:37:26.569Z,3388
2019-03-05T12:38:01.561Z,3480
2019-03-05T12:38:35.532Z,3396
2019-03-05T12:39:07.717Z,3240
2019-03-05T12:39:39.686Z,3072
2019-03-05T12:40:11.675Z,2780
2019-03-05T12:40:43.616Z,2532
2019-03-05T12:42:35.457Z,1556
2019-03-05T12:45:46.835Z,4476
2019-03-05T12:47:38.224Z,4756
2019-03-05T12:48:10.273Z,3836
2019-03-05T12:48:42.409Z,3152
2019-03-05T12:49:16.849Z,2840
2019-03-05T12:49:48.960Z,2412
2019-03-05T12:50:20.946Z,1896
2019-03-05T12:50:52.903Z,1632
2019-03-05T12:51:24.863Z,1436
2019-03-05T12:51:56.848Z,1392
2019-03-05T12:52:28.808Z,1600
2019-03-05T12:53:00.795Z,1792
2019-03-05T12:53:32.822Z,1856
2019-03-05T12:54:04.796Z,1872
2019-03-05T12:54:36.752Z,2064
2019-03-05T12:55:08.727Z,2280
2019-03-05T12:55:40.719Z,2480
2019-03-05T12:56:24.867Z,2480
2019-03-05T12:58:16.151Z,3140
2019-03-05T12:58:48.120Z,3116
2019-03-05T12:59:20.083Z,3072
2019-03-05T12:59:52.081Z,2800
2019-03-05T13:00:24.105Z,2132
2019-03-05T13:00:56.082Z,1756
2019-03-05T13:01:28.090Z,1628
2019-03-05T13:02:00.076Z,1596
2019-03-05T13:03:51.755Z,1528
2019-03-05T13:04:23.748Z,1400
2019-03-05T13:06:15.145Z,1120
2019-03-05T13:06:47.135Z,1124
2019-03-05T13:07:20.219Z,1160
2019-03-05T13:07:58.348Z,1268
2019-03-05T13:08:30.394Z,1444
2019-03-05T13:09:02.385Z,1816
2019-03-05T13:09:34.353Z,2232
2019-03-05T13:10:06.347Z,2268
2019-03-05T13:10:38.891Z,2320
2019-03-05T13:11:15.346Z,2668
2019-03-05T13:13:15.346Z,5592
2019-03-05T13:14:10.199Z,3540
2019-03-05T13:14:45.130Z,4636
2019-03-05T13:15:17.116Z,6500
2019-03-05T13:15:49.091Z,9464
2019-03-05T13:16:27.734Z,7800
2019-03-05T13:16:59.717Z,4976
2019-03-05T13:17:31.679Z,2216
2019-03-05T13:18:03.720Z,1928
2019-03-05T13:18:35.700Z,1884
2019-03-05T13:20:28.607Z,1216
2019-03-05T13:21:08.749Z,1176
2019-03-05T13:21:48.454Z,1188
2019-03-05T13:22:30.340Z,1288
2019-03-05T13:23:11.634Z,1400
2019-03-05T13:23:43.601Z,1708
2019-03-05T13:24:16.334Z,2076
2019-03-05T13:26:11.836Z,1804
2019-03-05T13:26:47.213Z,1736
2019-03-05T13:27:24.225Z,1868
2019-03-05T13:28:04.676Z,2224
2019-03-05T13:28:42.489Z,2784
2019-03-05T13:29:21.390Z,3776
2019-03-05T13:31:12.745Z,3944
2019-03-05T13:31:44.714Z,4192
2019-03-05T13:32:46.477Z,5388
2019-03-05T13:33:18.467Z,15792
2019-03-05T13:33:50.445Z,7152
2019-03-05T13:34:22.427Z,9528
2019-03-05T13:34:54.467Z,6432
2019-03-05T13:35:33.077Z,12496
2019-03-05T13:36:16.460Z,8592
2019-03-05T13:36:52.787Z,11712
2019-03-05T13:37:30.282Z,57664
2019-03-05T13:38:10.011Z,9152
2019-03-05T13:38:46.872Z,12604
2019-03-05T13:39:24.608Z,5936
2019-03-05T13:40:00.360Z,7192
2019-03-05T13:40:41.347Z,9336
2019-03-05T13:41:17.700Z,6044
2019-03-05T13:41:55.446Z,7192
2019-03-05T13:42:35.670Z,8832
2019-03-05T13:43:07.648Z,9928
2019-03-05T13:43:39.595Z,9876
2019-03-05T13:44:11.582Z,46432
2019-03-05T13:44:43.571Z,50304
2019-03-05T13:45:15.567Z,11964
2019-03-05T13:45:51.418Z,7568
2019-03-05T13:46:30.639Z,7180
2019-03-05T13:47:06.662Z,4960
2019-03-05T13:47:43.849Z,23552
2019-03-05T13:48:24.490Z,5516
2019-03-05T13:49:00.051Z,5588
2019-03-05T13:49:41.996Z,4844
2019-03-05T13:50:14.004Z,5556
2019-03-05T13:50:45.981Z,5224
2019-03-05T13:51:24.649Z,6860
2019-03-05T13:52:01.137Z,8540
2019-03-05T13:52:37.905Z,6040
2019-03-05T13:53:24.402Z,2672
2019-03-05T13:54:11.649Z,2256
2019-03-05T13:54:50.161Z,2512
2019-03-05T13:55:28.706Z,3580
2019-03-05T13:56:05.498Z,3256
2019-03-05T13:56:44.704Z,3328
2019-03-05T13:57:20.404Z,3528
2019-03-05T13:57:56.901Z,7588
2019-03-05T13:58:31.392Z,58848
2019-03-05T13:59:03.634Z,54784
2019-03-05T13:59:35.677Z,56032
2019-03-05T14:00:08.662Z,54432
2019-03-05T14:00:40.667Z,53024
2019-03-05T14:01:12.657Z,52480
2019-03-05T14:01:44.659Z,51872
2019-03-05T14:02:16.671Z,20032
2019-03-05T14:02:54.292Z,3140
2019-03-05T14:03:26.285Z,2772
2019-03-05T14:03:58.299Z,2508
2019-03-05T14:04:30.385Z,2492
2019-03-05T14:05:02.401Z,2600
2019-03-05T14:05:34.464Z,3212
2019-03-05T14:06:06.424Z,16296
2019-03-05T14:06:38.563Z,5120
2019-03-05T14:07:10.583Z,4772
2019-03-05T14:07:42.574Z,6188
2019-03-05T14:08:14.684Z,34944
2019-03-05T14:08:46.746Z,32480
2019-03-05T14:09:18.816Z,15004
2019-03-05T14:09:50.878Z,22496
2019-03-05T14:10:22.923Z,47072
2019-03-05T14:10:57.764Z,16248
2019-03-05T14:11:29.784Z,7412
2019-03-05T14:12:01.817Z,5556
2019-03-05T14:12:33.872Z,5612
2019-03-05T14:13:05.897Z,4556
2019-03-05T14:13:37.955Z,3836
2019-03-05T14:14:09.996Z,3484
2019-03-05T14:14:42.028Z,3432
2019-03-05T14:15:14.138Z,3728
2019-03-05T14:15:46.261Z,4996
2019-03-05T14:16:18.315Z,9920
2019-03-05T14:16:50.351Z,52704
2019-03-05T14:17:22.424Z,19840
2019-03-05T14:17:54.461Z,8308
2019-03-05T14:18:26.587Z,8328
2019-03-05T14:18:58.653Z,12496
2019-03-05T14:19:30.803Z,55520
2019-03-05T14:20:02.907Z,57088
2019-03-05T14:20:36.526Z,56736
2019-03-05T14:21:08.666Z,41056
2019-03-05T14:21:40.801Z,8608
2019-03-05T14:22:12.875Z,16224
2019-03-05T14:22:44.961Z,8256
2019-03-05T14:23:17.052Z,7152
2019-03-05T14:23:49.072Z,7796
2019-03-05T14:24:21.094Z,9692
2019-03-05T14:25:04.028Z,7460
2019-03-05T14:25:36.132Z,6096
2019-03-05T14:26:08.219Z,5564
2019-03-05T14:26:40.303Z,6084
2019-03-05T14:27:12.381Z,14108
2019-03-05T14:27:44.415Z,51168
2019-03-05T14:28:16.511Z,52256
2019-03-05T14:28:51.367Z,51072
2019-03-05T14:29:23.447Z,51168
2019-03-05T14:29:55.586Z,51584
2019-03-05T14:30:27.742Z,51808
2019-03-05T14:30:59.801Z,50464
2019-03-05T14:31:31.893Z,49376
2019-03-05T14:32:03.971Z,48032
2019-03-05T14:32:36.031Z,50496
2019-03-05T14:33:08.110Z,19136
2019-03-05T14:33:40.158Z,48960
2019-03-05T14:34:12.210Z,8580
2019-03-05T14:34:44.273Z,19104
2019-03-05T14:35:16.378Z,5072
2019-03-05T14:35:48.938Z,3936
2019-03-05T14:36:21.111Z,3412
2019-03-05T14:36:53.122Z,3520
2019-03-05T14:37:25.272Z,4308
2019-03-05T14:37:57.380Z,4676
2019-03-05T14:38:29.447Z,5212
2019-03-05T14:39:01.595Z,4980
2019-03-05T14:39:33.717Z,4380
2019-03-05T14:40:25.827Z,5348
2019-03-05T14:40:57.868Z,40352
2019-03-05T14:41:29.903Z,5708
2019-03-05T14:42:02.032Z,5224
2019-03-05T14:42:34.183Z,4856
2019-03-05T14:43:06.309Z,4544
2019-03-05T14:43:38.418Z,5292
2019-03-05T14:44:10.492Z,32416
2019-03-05T14:44:42.522Z,9284
2019-03-05T14:45:14.643Z,13816
2019-03-05T14:45:46.724Z,10028
2019-03-05T14:46:18.863Z,15728
2019-03-05T14:46:50.930Z,45696
2019-03-05T14:47:22.991Z,44992
2019-03-05T14:47:55.081Z,42592
2019-03-05T14:48:27.168Z,41344
2019-03-05T14:48:59.430Z,39776
2019-03-05T14:49:31.637Z,41152
2019-03-05T14:50:03.833Z,42304
2019-03-05T14:50:35.894Z,40960
2019-03-05T14:51:07.983Z,30016
2019-03-05T14:51:40.048Z,35232
2019-03-05T14:52:12.153Z,10376
2019-03-05T14:52:44.315Z,42304
2019-03-05T14:53:16.329Z,6824
2019-03-05T14:53:48.410Z,6284
2019-03-05T14:54:23.051Z,11276
2019-03-05T14:54:55.155Z,40192
2019-03-05T14:55:27.299Z,40800
2019-03-05T14:55:59.371Z,40064
2019-03-05T14:56:31.478Z,38880
2019-03-05T14:57:03.586Z,38432
2019-03-05T14:57:35.637Z,37344
2019-03-05T14:58:07.681Z,36576
2019-03-05T14:58:39.769Z,36032
2019-03-05T14:59:11.956Z,35680
2019-03-05T14:59:44.117Z,36256
2019-03-05T15:00:19.193Z,36384
2019-03-05T15:00:51.256Z,13744
2019-03-05T15:01:23.409Z,5404
2019-03-05T15:01:55.556Z,5348
2019-03-05T15:02:27.841Z,15080
2019-03-05T15:02:59.934Z,30816
2019-03-05T15:03:32.192Z,33792
2019-03-05T15:04:04.274Z,34432
2019-03-05T15:04:36.396Z,33888
2019-03-05T15:05:08.495Z,34080
2019-03-05T15:05:40.628Z,27424
2019-03-05T15:06:13.219Z,34784
2019-03-05T15:06:45.395Z,31744
2019-03-05T15:07:17.582Z,34400
2019-03-05T15:07:49.780Z,33152
2019-03-05T15:08:21.957Z,31616
2019-03-05T15:08:54.033Z,30848
2019-03-05T15:09:26.243Z,31552
2019-03-05T15:09:58.375Z,31008
2019-03-05T15:10:30.451Z,28640
2019-03-05T15:11:02.531Z,26368
2019-03-05T15:11:34.718Z,24096
2019-03-05T15:12:06.927Z,23616
2019-03-05T15:12:39.033Z,23872
2019-03-05T15:13:21.037Z,24608
2019-03-05T15:13:53.120Z,24288
2019-03-05T15:14:25.266Z,23520
2019-03-05T15:14:57.365Z,23520
2019-03-05T15:15:29.528Z,25696
2019-03-05T15:16:01.605Z,26880
2019-03-05T15:16:33.664Z,27552
2019-03-05T15:17:05.775Z,25664
2019-03-05T15:17:37.950Z,23616
2019-03-05T15:18:09.997Z,19648
2019-03-05T15:18:42.202Z,14020
2019-03-05T15:19:23.083Z,7156
2019-03-05T15:19:55.171Z,4728
2019-03-05T15:20:27.298Z,4504
2019-03-05T15:20:59.475Z,4324
2019-03-05T15:21:31.561Z,4172
2019-03-05T15:22:03.638Z,4040
2019-03-05T15:22:35.842Z,3920
2019-03-05T15:23:07.918Z,3840
2019-03-05T15:23:40.104Z,3840
2019-03-05T15:24:12.198Z,3756
2019-03-05T15:24:44.270Z,3716
2019-03-05T15:25:16.361Z,3600
2019-03-05T15:25:48.480Z,3524
2019-03-05T15:26:20.528Z,3444
2019-03-05T15:26:52.664Z,3416
2019-03-05T15:27:24.772Z,3408
2019-03-05T15:27:56.915Z,3432
2019-03-05T15:28:29.048Z,3192
2019-03-05T15:29:01.259Z,3128
2019-03-05T15:29:33.451Z,3336
2019-03-05T15:30:05.596Z,3432
2019-03-05T15:30:37.722Z,3372
2019-03-05T15:31:09.975Z,3092
2019-03-05T15:31:42.050Z,2772
2019-03-05T15:32:14.166Z,2604
2019-03-05T15:32:46.221Z,2420
2019-03-05T15:33:18.260Z,2364
2019-03-05T15:33:50.440Z,2324
2019-03-05T15:34:22.501Z,2748
2019-03-05T15:34:54.699Z,2804
2019-03-05T15:35:26.877Z,2920
2019-03-05T15:35:59.041Z,2660
2019-03-05T15:36:31.234Z,2636
2019-03-05T15:37:03.323Z,2628
2019-03-05T15:37:35.687Z,2476
2019-03-05T15:38:07.838Z,2308
2019-03-05T15:38:39.957Z,2296
2019-03-05T15:39:12.243Z,2228
2019-03-05T15:39:44.442Z,2248
2019-03-05T15:40:16.548Z,2324
2019-03-05T15:40:48.790Z,2236
2019-03-05T15:41:20.927Z,2196
2019-03-05T15:41:53.002Z,2104
2019-03-05T15:42:28.419Z,2012
2019-03-05T15:43:01.580Z,1856
2019-03-05T15:43:33.757Z,1688
2019-03-05T15:44:05.822Z,1688
2019-03-05T15:44:38.049Z,1832
2019-03-05T15:45:10.171Z,1904
2019-03-05T15:45:42.258Z,1740
2019-03-05T15:46:14.413Z,1668
2019-03-05T15:46:46.558Z,1756
2019-03-05T15:47:18.901Z,1908
2019-03-05T15:47:51.051Z,2152
2019-03-05T15:48:23.064Z,2368
2019-03-05T15:48:55.174Z,2540
2019-03-05T15:49:27.358Z,2596
2019-03-05T15:49:59.493Z,2544
2019-03-05T15:50:31.615Z,2480
2019-03-05T15:51:03.748Z,2500
2019-03-05T15:51:35.860Z,2604
2019-03-05T15:52:08.043Z,2840
2019-03-05T15:52:40.166Z,2972
2019-03-05T15:53:12.250Z,3024
2019-03-05T15:54:17.337Z,3060
2019-03-05T15:54:49.335Z,3232
2019-03-05T15:55:21.365Z,3136
2019-03-05T15:55:53.353Z,2920
2019-03-05T15:56:25.347Z,2780
2019-03-05T15:56:57.327Z,2600
2019-03-05T15:57:29.314Z,2480
2019-03-05T15:58:01.388Z,2412
2019-03-05T15:58:33.374Z,2400
2019-03-05T15:59:05.353Z,2468
2019-03-05T15:59:37.765Z,2544
2019-03-05T16:00:09.905Z,2592
2019-03-05T16:00:41.885Z,2632
2019-03-05T16:01:23.801Z,2580
2019-03-05T16:01:55.803Z,2504
2019-03-05T16:02:27.765Z,2456
2019-03-05T16:02:59.770Z,2428
2019-03-05T16:03:31.761Z,2396
2019-03-05T16:04:03.778Z,2400
2019-03-05T16:04:44.225Z,2496
2019-03-05T16:05:22.571Z,2528
2019-03-05T16:05:59.490Z,2512
2019-03-05T16:06:36.094Z,2440
2019-03-05T16:07:13.437Z,2368
2019-03-05T16:07:50.127Z,2340
2019-03-05T16:08:27.095Z,2340
2019-03-05T16:09:04.705Z,2288
2019-03-05T16:09:44.477Z,2188
2019-03-05T16:10:19.672Z,2092
2019-03-05T16:10:59.484Z,1952
2019-03-05T16:11:36.062Z,1808
2019-03-05T16:12:11.600Z,1704
2019-03-05T16:12:44.729Z,1612
2019-03-05T16:13:21.545Z,1556
2019-03-05T16:13:58.829Z,1520
2019-03-05T16:14:34.682Z,1504
2019-03-05T16:15:11.334Z,1528
2019-03-05T16:15:47.727Z,1552
2019-03-05T16:16:20.628Z,1604
2019-03-05T16:16:54.013Z,1664
2019-03-05T16:17:30.550Z,1720
2019-03-05T16:18:07.720Z,1768
2019-03-05T16:18:41.414Z,1796
2019-03-05T16:19:18.805Z,1824
2019-03-05T16:19:54.419Z,1820
2019-03-05T16:20:30.262Z,1788
2019-03-05T16:21:07.820Z,1752
2019-03-05T16:21:43.700Z,1748
2019-03-05T16:22:20.179Z,1744
2019-03-05T16:22:57.627Z,1760
2019-03-05T16:23:30.651Z,1776
2019-03-05T16:24:03.988Z,1780
2019-03-05T16:24:39.801Z,1764
2019-03-05T16:27:14.840Z,1616
2019-03-05T16:27:47.454Z,1592
2019-03-05T16:28:19.978Z,1572
2019-03-05T16:28:52.030Z,1556
2019-03-05T16:29:24.044Z,1496
2019-03-05T16:29:58.120Z,1416
2019-03-05T16:30:36.160Z,1332
2019-03-05T16:31:13.532Z,1268
2019-03-05T16:31:51.710Z,1216
2019-03-05T16:32:28.752Z,1172
2019-03-05T16:33:02.370Z,1144
2019-03-05T16:33:39.421Z,1120
2019-03-05T16:34:15.263Z,1084
2019-03-05T16:34:48.205Z,1020
2019-03-05T16:35:20.829Z,988
2019-03-05T16:35:54.579Z,952
2019-03-05T16:36:31.434Z,928
2019-03-05T16:37:07.996Z,904
2019-03-05T16:37:44.203Z,880
2019-03-05T16:38:21.019Z,860
2019-03-05T16:38:56.908Z,840
2019-03-05T16:39:34.133Z,812
2019-03-05T16:40:10.830Z,780
2019-03-05T16:40:46.870Z,760
2019-03-05T16:41:23.326Z,748
2019-03-05T16:41:59.125Z,736
2019-03-05T16:42:35.433Z,728
2019-03-05T16:43:07.439Z,720
2019-03-05T16:43:40.085Z,712
2019-03-05T16:44:12.486Z,696
2019-03-05T16:44:45.284Z,680
2019-03-05T16:45:17.601Z,664
2019-03-05T16:45:49.631Z,648
2019-03-05T16:46:21.649Z,628
2019-03-05T16:46:53.675Z,604
2019-03-05T16:47:25.675Z,580
2019-03-05T16:47:57.720Z,556
2019-03-05T16:48:29.735Z,540
2019-03-05T16:49:01.737Z,520
2019-03-05T16:49:33.737Z,504
2019-03-05T16:50:05.730Z,488
2019-03-05T16:50:37.777Z,468
2019-03-05T16:51:09.785Z,452
2019-03-05T16:51:41.810Z,436
2019-03-05T16:52:13.804Z,420
2019-03-05T16:52:45.857Z,408
2019-03-05T16:53:17.876Z,396
2019-03-05T16:53:49.891Z,388
2019-03-05T16:54:21.918Z,380
2019-03-05T16:54:54.498Z,368
2019-03-05T16:55:26.573Z,356
2019-03-05T16:55:59.429Z,348
2019-03-05T16:56:31.853Z,336
2019-03-05T16:57:03.837Z,324
2019-03-05T16:57:36.167Z,308
2019-03-05T16:58:08.179Z,292
2019-03-05T16:58:40.211Z,280
2019-03-05T16:59:12.224Z,264
2019-03-05T16:59:44.221Z,248
2019-03-05T17:00:16.231Z,236
2019-03-05T17:00:50.527Z,220
2019-03-05T17:01:22.559Z,212
2019-03-05T17:01:54.554Z,204
2019-03-05T17:02:26.591Z,192
2019-03-05T17:02:58.570Z,184
2019-03-05T17:03:30.581Z,176
2019-03-05T17:04:02.587Z,168
2019-03-05T17:04:34.601Z,160
2019-03-05T17:05:06.618Z,152
2019-03-05T17:05:38.625Z,144
2019-03-05T17:06:10.631Z,136
2019-03-05T17:06:42.645Z,132
2019-03-05T17:07:15.063Z,124
2019-03-05T17:07:47.042Z,116
2019-03-05T17:08:19.693Z,112
2019-03-05T17:08:52.072Z,108
2019-03-05T17:09:24.631Z,100
2019-03-05T17:09:57.281Z,96
2019-03-05T17:10:31.672Z,92
2019-03-05T17:11:04.159Z,88
2019-03-05T17:11:36.189Z,80
2019-03-05T17:12:08.214Z,76
2019-03-05T17:12:40.205Z,72
2019-03-05T17:13:12.799Z,68
2019-03-05T17:13:44.831Z,64
2019-03-05T17:14:16.841Z,64
2019-03-05T17:14:48.833Z,60
2019-03-05T17:15:20.856Z,56
2019-03-05T17:15:52.845Z,52
2019-03-05T17:16:24.853Z,48
2019-03-05T17:16:56.857Z,48
2019-03-05T17:17:28.849Z,44
2019-03-05T17:18:00.846Z,44
2019-03-05T17:18:32.847Z,40
2019-03-05T17:19:04.852Z,36
2019-03-05T17:19:36.858Z,36
2019-03-05T17:20:08.835Z,28
2019-03-05T17:20:41.434Z,28
2019-03-05T17:21:13.867Z,28
2019-03-05T17:21:46.186Z,24
2019-03-05T17:22:18.806Z,24
2019-03-05T17:22:50.848Z,20
2019-03-05T17:23:22.849Z,20
2019-03-05T17:23:54.844Z,20
2019-03-05T17:24:26.875Z,16
2019-03-05T17:24:58.877Z,16
2019-03-05T17:25:30.881Z,12
2019-03-05T17:26:02.892Z,12
2019-03-05T17:26:34.913Z,12
2019-03-05T17:27:06.942Z,12
2019-03-05T17:27:39.003Z,8
2019-03-05T17:28:11.038Z,12
2019-03-05T17:28:43.043Z,8
2019-03-05T17:29:15.057Z,8
2019-03-05T17:29:47.054Z,8
2019-03-05T17:30:19.694Z,8
2019-03-05T17:30:52.055Z,4
2019-03-05T17:31:24.037Z,4
2019-03-05T17:31:56.597Z,8
2019-03-05T17:32:29.122Z,4
2019-03-05T17:33:01.447Z,4
2019-03-05T17:33:33.996Z,4
2019-03-05T17:34:06.019Z,4
2019-03-05T17:34:38.078Z,4
2019-03-05T17:35:10.146Z,4
2019-03-05T17:35:42.141Z,4
2019-03-05T17:36:14.153Z,4
2019-03-05T17:36:46.128Z,4
2019-03-05T17:37:18.155Z,4
2019-03-05T17:37:50.164Z,0
2019-03-05T17:38:22.171Z,0
2019-03-05T17:38:54.180Z,0